sensor_id;sensor_type;location;lat;lon;timestamp;temperature;humidity
6377;DHT22;3221;48.858;10.128;2023-03-23T00:01:08;10.80;99.90
6377;DHT22;3221;48.858;10.128;2023-03-23T00:03:39;10.80;99.90
6377;DHT22;3221;48.858;10.128;2023-03-23T00:06:06;10.70;99.90
6377;DHT22;3221;48.858;10.128;2023-03-23T00:08:36;10.80;99.90
6377;DHT22;3221;48.858;10.128;2023-03-23T00:11:15;10.80;99.60
6377;DHT22;3221;48.858;10.128;2023-03-23T00:13:42;10.90;99.90
6377;DHT22;3221;48.858;10.128;2023-03-23T00:16:09;10.90;99.70
6377;DHT22;3221;48.858;10.128;2023-03-23T00:18:51;10.90;99.80
6377;DHT22;3221;48.858;10.128;2023-03-23T00:21:22;10.90;99.80
6377;DHT22;3221;48.858;10.128;2023-03-23T00:23:53;10.80;99.30
6377;DHT22;3221;48.858;10.128;2023-03-23T00:26:19;10.90;99.90
6377;DHT22;3221;48.858;10.128;2023-03-23T00:28:45;10.90;99.90
6377;DHT22;3221;48.858;10.128;2023-03-23T00:31:12;11.00;99.90
6377;DHT22;3221;48.858;10.128;2023-03-23T00:33:39;10.90;99.90
6377;DHT22;3221;48.858;10.128;2023-03-23T00:36:10;11.00;99.90
6377;DHT22;3221;48.858;10.128;2023-03-23T00:38:38;11.10;99.90
6377;DHT22;3221;48.858;10.128;2023-03-23T00:41:05;10.90;99.90
6377;DHT22;3221;48.858;10.128;2023-03-23T00:43:32;10.80;99.90
6377;DHT22;3221;48.858;10.128;2023-03-23T00:46:02;10.80;99.90
6377;DHT22;3221;48.858;10.128;2023-03-23T00:48:29;10.80;99.90
6377;DHT22;3221;48.858;10.128;2023-03-23T00:50:55;10.70;99.90
6377;DHT22;3221;48.858;10.128;2023-03-23T00:53:22;10.70;99.90
6377;DHT22;3221;48.858;10.128;2023-03-23T00:55:48;10.70;99.90
6377;DHT22;3221;48.858;10.128;2023-03-23T00:58:15;10.70;99.90
6377;DHT22;3221;48.858;10.128;2023-03-23T01:00:41;10.50;99.90
6377;DHT22;3221;48.858;10.128;2023-03-23T01:03:08;10.70;99.90
6377;DHT22;3221;48.858;10.128;2023-03-23T01:05:38;10.60;99.90
6377;DHT22;3221;48.858;10.128;2023-03-23T01:08:05;10.60;99.90
6377;DHT22;3221;48.858;10.128;2023-03-23T01:10:32;10.60;99.90
6377;DHT22;3221;48.858;10.128;2023-03-23T01:13:01;10.50;99.90
6377;DHT22;3221;48.858;10.128;2023-03-23T01:15:28;10.40;99.90
6377;DHT22;3221;48.858;10.128;2023-03-23T01:17:55;10.50;99.90
6377;DHT22;3221;48.858;10.128;2023-03-23T01:20:21;10.50;99.90
6377;DHT22;3221;48.858;10.128;2023-03-23T01:22:48;10.60;99.90
6377;DHT22;3221;48.858;10.128;2023-03-23T01:25:14;10.50;99.90
6377;DHT22;3221;48.858;10.128;2023-03-23T01:27:40;10.70;99.90
6377;DHT22;3221;48.858;10.128;2023-03-23T01:30:08;10.50;99.90
6377;DHT22;3221;48.858;10.128;2023-03-23T01:32:36;10.50;99.90
6377;DHT22;3221;48.858;10.128;2023-03-23T01:35:02;10.40;99.90
6377;DHT22;3221;48.858;10.128;2023-03-23T01:37:29;10.60;99.90
6377;DHT22;3221;48.858;10.128;2023-03-23T01:39:56;10.60;99.90
6377;DHT22;3221;48.858;10.128;2023-03-23T01:42:30;10.50;99.90
6377;DHT22;3221;48.858;10.128;2023-03-23T01:45:26;10.40;99.90
6377;DHT22;3221;48.858;10.128;2023-03-23T01:47:57;10.40;99.90
6377;DHT22;3221;48.858;10.128;2023-03-23T01:50:27;10.30;99.90
6377;DHT22;3221;48.858;10.128;2023-03-23T01:52:55;10.40;99.90
6377;DHT22;3221;48.858;10.128;2023-03-23T01:55:23;10.40;99.90
6377;DHT22;3221;48.858;10.128;2023-03-23T01:57:50;10.40;99.90
6377;DHT22;3221;48.858;10.128;2023-03-23T02:00:17;10.40;99.90
6377;DHT22;3221;48.858;10.128;2023-03-23T02:02:52;10.40;99.90
6377;DHT22;3221;48.858;10.128;2023-03-23T02:05:28;10.40;99.90
6377;DHT22;3221;48.858;10.128;2023-03-23T02:07:58;10.40;99.90
6377;DHT22;3221;48.858;10.128;2023-03-23T02:10:33;10.50;99.90
6377;DHT22;3221;48.858;10.128;2023-03-23T02:13:00;10.40;99.90
6377;DHT22;3221;48.858;10.128;2023-03-23T02:16:14;10.50;99.90
6377;DHT22;3221;48.858;10.128;2023-03-23T02:18:26;10.60;99.90
6377;DHT22;3221;48.858;10.128;2023-03-23T02:21:20;10.60;99.90
6377;DHT22;3221;48.858;10.128;2023-03-23T02:29:51;10.80;99.90
6377;DHT22;3221;48.858;10.128;2023-03-23T02:35:22;11.00;99.90
6377;DHT22;3221;48.858;10.128;2023-03-23T02:37:56;10.90;99.90
6377;DHT22;3221;48.858;10.128;2023-03-23T02:40:53;10.90;99.90
6377;DHT22;3221;48.858;10.128;2023-03-23T02:43:24;10.90;99.90
6377;DHT22;3221;48.858;10.128;2023-03-23T02:45:52;10.90;99.90
6377;DHT22;3221;48.858;10.128;2023-03-23T02:48:22;10.90;99.90
6377;DHT22;3221;48.858;10.128;2023-03-23T02:50:52;11.00;99.90
6377;DHT22;3221;48.858;10.128;2023-03-23T02:53:23;11.10;99.90
6377;DHT22;3221;48.858;10.128;2023-03-23T02:55:52;11.00;99.90
6377;DHT22;3221;48.858;10.128;2023-03-23T02:58:22;11.10;99.90
6377;DHT22;3221;48.858;10.128;2023-03-23T03:00:49;11.00;99.90
6377;DHT22;3221;48.858;10.128;2023-03-23T03:03:19;11.10;99.90
6377;DHT22;3221;48.858;10.128;2023-03-23T03:06:42;11.10;99.90
6377;DHT22;3221;48.858;10.128;2023-03-23T03:08:50;11.20;99.90
6377;DHT22;3221;48.858;10.128;2023-03-23T03:11:19;11.10;99.90
6377;DHT22;3221;48.858;10.128;2023-03-23T03:13:56;11.10;99.90
6377;DHT22;3221;48.858;10.128;2023-03-23T03:16:29;11.00;99.90
6377;DHT22;3221;48.858;10.128;2023-03-23T03:19:02;11.00;99.90
6377;DHT22;3221;48.858;10.128;2023-03-23T03:21:31;11.10;99.90
6377;DHT22;3221;48.858;10.128;2023-03-23T03:24:01;11.10;99.90
6377;DHT22;3221;48.858;10.128;2023-03-23T03:26:32;11.10;99.90
6377;DHT22;3221;48.858;10.128;2023-03-23T03:29:32;11.30;99.90
6377;DHT22;3221;48.858;10.128;2023-03-23T03:32:02;11.30;99.90
6377;DHT22;3221;48.858;10.128;2023-03-23T03:34:32;11.20;99.90
6377;DHT22;3221;48.858;10.128;2023-03-23T03:36:59;11.10;99.90
6377;DHT22;3221;48.858;10.128;2023-03-23T03:39:27;11.10;99.90
6377;DHT22;3221;48.858;10.128;2023-03-23T03:41:53;11.20;99.90
6377;DHT22;3221;48.858;10.128;2023-03-23T03:44:20;11.10;99.90
6377;DHT22;3221;48.858;10.128;2023-03-23T03:46:45;11.20;99.90
6377;DHT22;3221;48.858;10.128;2023-03-23T03:49:11;11.20;99.90
6377;DHT22;3221;48.858;10.128;2023-03-23T03:51:40;11.20;99.90
6377;DHT22;3221;48.858;10.128;2023-03-23T03:54:11;11.20;99.90
6377;DHT22;3221;48.858;10.128;2023-03-23T03:56:37;11.10;99.90
6377;DHT22;3221;48.858;10.128;2023-03-23T03:59:35;11.20;99.90
6377;DHT22;3221;48.858;10.128;2023-03-23T04:02:25;11.20;99.90
6377;DHT22;3221;48.858;10.128;2023-03-23T04:04:52;11.20;99.90
6377;DHT22;3221;48.858;10.128;2023-03-23T04:07:18;11.20;99.90
6377;DHT22;3221;48.858;10.128;2023-03-23T04:09:45;11.20;99.90
6377;DHT22;3221;48.858;10.128;2023-03-23T04:12:14;11.20;99.90
6377;DHT22;3221;48.858;10.128;2023-03-23T04:14:55;11.20;99.90
6377;DHT22;3221;48.858;10.128;2023-03-23T04:17:25;11.20;99.90
6377;DHT22;3221;48.858;10.128;2023-03-23T04:19:53;11.20;99.90
6377;DHT22;3221;48.858;10.128;2023-03-23T04:22:23;11.30;99.90
6377;DHT22;3221;48.858;10.128;2023-03-23T04:24:58;11.30;99.90
6377;DHT22;3221;48.858;10.128;2023-03-23T04:27:27;11.30;99.90
6377;DHT22;3221;48.858;10.128;2023-03-23T04:29:56;11.30;99.90
6377;DHT22;3221;48.858;10.128;2023-03-23T04:32:50;11.30;99.90
6377;DHT22;3221;48.858;10.128;2023-03-23T04:35:23;11.30;99.90
6377;DHT22;3221;48.858;10.128;2023-03-23T04:38:02;11.20;99.90
6377;DHT22;3221;48.858;10.128;2023-03-23T04:40:28;11.30;99.90
6377;DHT22;3221;48.858;10.128;2023-03-23T04:43:18;11.30;99.90
6377;DHT22;3221;48.858;10.128;2023-03-23T04:45:59;11.30;99.90
6377;DHT22;3221;48.858;10.128;2023-03-23T04:48:30;11.20;99.90
6377;DHT22;3221;48.858;10.128;2023-03-23T04:51:18;11.20;99.90
6377;DHT22;3221;48.858;10.128;2023-03-23T04:53:46;11.20;99.90
6377;DHT22;3221;48.858;10.128;2023-03-23T04:56:12;11.20;99.90
6377;DHT22;3221;48.858;10.128;2023-03-23T04:58:44;11.20;99.90
6377;DHT22;3221;48.858;10.128;2023-03-23T05:01:30;11.00;99.90
6377;DHT22;3221;48.858;10.128;2023-03-23T05:04:08;11.10;99.90
6377;DHT22;3221;48.858;10.128;2023-03-23T05:06:35;11.10;99.90
6377;DHT22;3221;48.858;10.128;2023-03-23T05:09:09;11.20;99.90
6377;DHT22;3221;48.858;10.128;2023-03-23T05:11:35;11.10;99.90
6377;DHT22;3221;48.858;10.128;2023-03-23T05:14:03;11.30;99.90
6377;DHT22;3221;48.858;10.128;2023-03-23T05:16:29;11.40;99.90
6377;DHT22;3221;48.858;10.128;2023-03-23T05:18:56;11.10;99.90
6377;DHT22;3221;48.858;10.128;2023-03-23T05:21:26;11.20;99.90
6377;DHT22;3221;48.858;10.128;2023-03-23T05:23:54;11.40;99.90
6377;DHT22;3221;48.858;10.128;2023-03-23T05:26:21;11.30;99.90
6377;DHT22;3221;48.858;10.128;2023-03-23T05:28:56;11.50;99.90
6377;DHT22;3221;48.858;10.128;2023-03-23T05:31:27;11.30;99.90
6377;DHT22;3221;48.858;10.128;2023-03-23T05:33:53;11.20;99.90
6377;DHT22;3221;48.858;10.128;2023-03-23T05:36:25;11.30;99.90
6377;DHT22;3221;48.858;10.128;2023-03-23T05:39:12;11.30;99.90
6377;DHT22;3221;48.858;10.128;2023-03-23T05:42:00;11.30;99.90
6377;DHT22;3221;48.858;10.128;2023-03-23T05:44:35;11.30;99.90
6377;DHT22;3221;48.858;10.128;2023-03-23T05:47:01;11.30;99.90
6377;DHT22;3221;48.858;10.128;2023-03-23T05:49:30;11.30;99.90
6377;DHT22;3221;48.858;10.128;2023-03-23T05:51:56;11.30;99.90
6377;DHT22;3221;48.858;10.128;2023-03-23T05:54:25;11.30;99.90
6377;DHT22;3221;48.858;10.128;2023-03-23T05:56:52;11.40;99.90
6377;DHT22;3221;48.858;10.128;2023-03-23T05:59:47;11.40;99.90
6377;DHT22;3221;48.858;10.128;2023-03-23T06:02:21;11.30;99.90
6377;DHT22;3221;48.858;10.128;2023-03-23T06:04:50;11.40;99.90
6377;DHT22;3221;48.858;10.128;2023-03-23T06:07:22;11.40;99.90
6377;DHT22;3221;48.858;10.128;2023-03-23T06:09:59;11.40;99.90
6377;DHT22;3221;48.858;10.128;2023-03-23T06:12:25;11.50;99.90
6377;DHT22;3221;48.858;10.128;2023-03-23T06:15:10;11.50;99.90
6377;DHT22;3221;48.858;10.128;2023-03-23T06:18:00;11.40;99.90
6377;DHT22;3221;48.858;10.128;2023-03-23T06:20:34;11.60;99.90
6377;DHT22;3221;48.858;10.128;2023-03-23T06:23:12;11.50;99.90
6377;DHT22;3221;48.858;10.128;2023-03-23T06:25:39;11.60;99.90
6377;DHT22;3221;48.858;10.128;2023-03-23T06:28:05;11.50;99.90
6377;DHT22;3221;48.858;10.128;2023-03-23T06:30:35;11.60;99.90
6377;DHT22;3221;48.858;10.128;2023-03-23T06:33:02;11.40;99.90
6377;DHT22;3221;48.858;10.128;2023-03-23T06:36:00;11.30;99.90
6377;DHT22;3221;48.858;10.128;2023-03-23T06:38:42;11.40;99.90
6377;DHT22;3221;48.858;10.128;2023-03-23T06:41:08;11.40;99.90
6377;DHT22;3221;48.858;10.128;2023-03-23T06:43:34;11.40;99.90
6377;DHT22;3221;48.858;10.128;2023-03-23T06:46:12;11.40;99.90
6377;DHT22;3221;48.858;10.128;2023-03-23T06:48:40;11.30;99.90
6377;DHT22;3221;48.858;10.128;2023-03-23T06:51:09;11.50;99.90
6377;DHT22;3221;48.858;10.128;2023-03-23T06:53:37;11.60;99.90
6377;DHT22;3221;48.858;10.128;2023-03-23T06:56:05;11.50;99.90
6377;DHT22;3221;48.858;10.128;2023-03-23T06:58:32;11.50;99.90
6377;DHT22;3221;48.858;10.128;2023-03-23T07:00:58;11.50;99.90
6377;DHT22;3221;48.858;10.128;2023-03-23T07:03:32;11.60;99.90
6377;DHT22;3221;48.858;10.128;2023-03-23T07:05:59;11.60;99.90
6377;DHT22;3221;48.858;10.128;2023-03-23T07:08:29;11.50;99.90
6377;DHT22;3221;48.858;10.128;2023-03-23T07:10:56;11.60;99.90
6377;DHT22;3221;48.858;10.128;2023-03-23T07:13:26;11.60;99.90
6377;DHT22;3221;48.858;10.128;2023-03-23T07:15:57;11.60;99.90
6377;DHT22;3221;48.858;10.128;2023-03-23T07:18:23;11.60;99.90
6377;DHT22;3221;48.858;10.128;2023-03-23T07:20:52;11.60;99.90
6377;DHT22;3221;48.858;10.128;2023-03-23T07:23:21;11.60;99.90
6377;DHT22;3221;48.858;10.128;2023-03-23T07:25:56;11.80;99.90
6377;DHT22;3221;48.858;10.128;2023-03-23T07:28:27;11.80;99.90
6377;DHT22;3221;48.858;10.128;2023-03-23T07:30:58;11.70;99.90
6377;DHT22;3221;48.858;10.128;2023-03-23T07:33:24;11.60;99.90
6377;DHT22;3221;48.858;10.128;2023-03-23T07:35:51;11.70;99.90
6377;DHT22;3221;48.858;10.128;2023-03-23T07:38:18;11.70;99.90
6377;DHT22;3221;48.858;10.128;2023-03-23T07:40:47;11.70;99.90
6377;DHT22;3221;48.858;10.128;2023-03-23T07:43:16;11.70;99.90
6377;DHT22;3221;48.858;10.128;2023-03-23T07:46:12;11.70;99.90
6377;DHT22;3221;48.858;10.128;2023-03-23T07:48:58;11.80;99.90
6377;DHT22;3221;48.858;10.128;2023-03-23T07:51:33;11.80;99.90
6377;DHT22;3221;48.858;10.128;2023-03-23T07:54:00;11.80;99.90
6377;DHT22;3221;48.858;10.128;2023-03-23T07:56:51;11.80;99.90
6377;DHT22;3221;48.858;10.128;2023-03-23T07:59:21;11.90;99.90
6377;DHT22;3221;48.858;10.128;2023-03-23T08:01:47;11.80;99.90
6377;DHT22;3221;48.858;10.128;2023-03-23T08:04:30;11.90;99.90
6377;DHT22;3221;48.858;10.128;2023-03-23T08:07:29;11.80;99.90
6377;DHT22;3221;48.858;10.128;2023-03-23T08:10:27;11.90;99.90
6377;DHT22;3221;48.858;10.128;2023-03-23T08:13:01;11.90;99.90
6377;DHT22;3221;48.858;10.128;2023-03-23T08:15:53;12.10;99.90
6377;DHT22;3221;48.858;10.128;2023-03-23T08:18:31;11.90;99.90
6377;DHT22;3221;48.858;10.128;2023-03-23T08:21:29;12.00;99.90
6377;DHT22;3221;48.858;10.128;2023-03-23T08:46:07;12.00;99.90
6377;DHT22;3221;48.858;10.128;2023-03-23T08:49:04;11.80;99.90
6377;DHT22;3221;48.858;10.128;2023-03-23T08:52:06;11.90;99.90
6377;DHT22;3221;48.858;10.128;2023-03-23T08:54:48;12.00;99.90
6377;DHT22;3221;48.858;10.128;2023-03-23T08:57:35;12.00;99.90
6377;DHT22;3221;48.858;10.128;2023-03-23T09:00:22;12.10;99.90
6377;DHT22;3221;48.858;10.128;2023-03-23T09:03:03;12.20;99.90
6377;DHT22;3221;48.858;10.128;2023-03-23T09:06:02;12.20;99.90
6377;DHT22;3221;48.858;10.128;2023-03-23T09:08:36;12.20;99.90
6377;DHT22;3221;48.858;10.128;2023-03-23T09:11:04;12.20;99.90
6377;DHT22;3221;48.858;10.128;2023-03-23T09:13:30;12.20;99.90
6377;DHT22;3221;48.858;10.128;2023-03-23T09:15:56;12.20;99.90
6377;DHT22;3221;48.858;10.128;2023-03-23T09:18:23;12.40;99.90
6377;DHT22;3221;48.858;10.128;2023-03-23T09:20:50;12.40;99.90
6377;DHT22;3221;48.858;10.128;2023-03-23T09:23:16;12.40;99.90
6377;DHT22;3221;48.858;10.128;2023-03-23T09:25:42;12.40;99.90
6377;DHT22;3221;48.858;10.128;2023-03-23T09:28:08;12.50;99.90
6377;DHT22;3221;48.858;10.128;2023-03-23T09:30:35;12.70;99.90
6377;DHT22;3221;48.858;10.128;2023-03-23T09:33:03;12.50;99.90
6377;DHT22;3221;48.858;10.128;2023-03-23T09:35:30;12.50;99.90
6377;DHT22;3221;48.858;10.128;2023-03-23T09:37:57;12.50;99.90
6377;DHT22;3221;48.858;10.128;2023-03-23T09:40:46;12.50;99.90
6377;DHT22;3221;48.858;10.128;2023-03-23T09:49:30;12.60;99.90
6377;DHT22;3221;48.858;10.128;2023-03-23T09:52:04;12.60;99.90
6377;DHT22;3221;48.858;10.128;2023-03-23T09:54:39;12.60;99.90
6377;DHT22;3221;48.858;10.128;2023-03-23T09:57:26;12.60;99.90
6377;DHT22;3221;48.858;10.128;2023-03-23T10:05:33;12.50;99.90
6377;DHT22;3221;48.858;10.128;2023-03-23T10:08:02;12.70;99.90
6377;DHT22;3221;48.858;10.128;2023-03-23T10:10:54;12.60;99.90
6377;DHT22;3221;48.858;10.128;2023-03-23T10:16:19;12.60;99.90
6377;DHT22;3221;48.858;10.128;2023-03-23T10:19:18;12.70;99.90
6377;DHT22;3221;48.858;10.128;2023-03-23T10:21:52;12.70;99.90
6377;DHT22;3221;48.858;10.128;2023-03-23T10:24:27;12.60;99.90
6377;DHT22;3221;48.858;10.128;2023-03-23T10:29:41;12.60;99.90
6377;DHT22;3221;48.858;10.128;2023-03-23T10:32:18;12.70;99.90
6377;DHT22;3221;48.858;10.128;2023-03-23T10:34:59;12.50;99.90
6377;DHT22;3221;48.858;10.128;2023-03-23T10:37:32;12.60;99.90
6377;DHT22;3221;48.858;10.128;2023-03-23T10:40:04;12.60;99.90
6377;DHT22;3221;48.858;10.128;2023-03-23T10:42:36;12.60;99.90
6377;DHT22;3221;48.858;10.128;2023-03-23T10:45:14;12.70;99.90
6377;DHT22;3221;48.858;10.128;2023-03-23T10:47:49;12.70;99.90
6377;DHT22;3221;48.858;10.128;2023-03-23T10:50:22;12.60;99.90
6377;DHT22;3221;48.858;10.128;2023-03-23T10:52:50;12.60;99.90
6377;DHT22;3221;48.858;10.128;2023-03-23T10:55:19;12.60;99.90
6377;DHT22;3221;48.858;10.128;2023-03-23T10:58:03;12.70;99.90
6377;DHT22;3221;48.858;10.128;2023-03-23T11:00:30;12.70;99.90
6377;DHT22;3221;48.858;10.128;2023-03-23T11:08:19;12.60;99.90
6377;DHT22;3221;48.858;10.128;2023-03-23T11:10:55;12.60;99.90
6377;DHT22;3221;48.858;10.128;2023-03-23T11:13:23;12.60;99.90
6377;DHT22;3221;48.858;10.128;2023-03-23T11:15:52;12.60;99.90
6377;DHT22;3221;48.858;10.128;2023-03-23T11:18:21;12.60;99.90
6377;DHT22;3221;48.858;10.128;2023-03-23T11:20:56;12.60;99.90
6377;DHT22;3221;48.858;10.128;2023-03-23T11:23:39;12.50;99.90
6377;DHT22;3221;48.858;10.128;2023-03-23T11:26:23;12.70;99.90
6377;DHT22;3221;48.858;10.128;2023-03-23T11:28:57;12.70;99.90
6377;DHT22;3221;48.858;10.128;2023-03-23T11:31:28;12.80;99.90
6377;DHT22;3221;48.858;10.128;2023-03-23T11:34:09;12.70;99.90
6377;DHT22;3221;48.858;10.128;2023-03-23T11:36:41;12.60;99.90
6377;DHT22;3221;48.858;10.128;2023-03-23T11:39:26;12.70;99.90
6377;DHT22;3221;48.858;10.128;2023-03-23T11:41:54;12.70;99.90
6377;DHT22;3221;48.858;10.128;2023-03-23T11:44:22;12.70;99.90
6377;DHT22;3221;48.858;10.128;2023-03-23T11:47:17;12.70;99.90
6377;DHT22;3221;48.858;10.128;2023-03-23T11:52:24;12.80;99.90
6377;DHT22;3221;48.858;10.128;2023-03-23T11:55:15;12.90;99.90
6377;DHT22;3221;48.858;10.128;2023-03-23T11:57:42;12.90;99.90
6377;DHT22;3221;48.858;10.128;2023-03-23T12:00:17;12.90;99.90
6377;DHT22;3221;48.858;10.128;2023-03-23T12:03:05;13.00;99.90
6377;DHT22;3221;48.858;10.128;2023-03-23T12:06:10;13.10;99.90
6377;DHT22;3221;48.858;10.128;2023-03-23T12:08:59;13.10;99.90
6377;DHT22;3221;48.858;10.128;2023-03-23T12:14:32;13.20;99.90
6377;DHT22;3221;48.858;10.128;2023-03-23T12:19:58;13.40;99.90
6377;DHT22;3221;48.858;10.128;2023-03-23T12:23:00;13.40;99.90
6377;DHT22;3221;48.858;10.128;2023-03-23T12:28:21;13.50;99.90
6377;DHT22;3221;48.858;10.128;2023-03-23T12:31:24;13.60;99.90
6377;DHT22;3221;48.858;10.128;2023-03-23T12:37:40;13.60;99.90
6377;DHT22;3221;48.858;10.128;2023-03-23T12:39:51;13.60;99.90
6377;DHT22;3221;48.858;10.128;2023-03-23T12:50:18;13.70;99.90
6377;DHT22;3221;48.858;10.128;2023-03-23T12:52:57;13.70;99.90
6377;DHT22;3221;48.858;10.128;2023-03-23T12:58:07;13.80;99.90
6377;DHT22;3221;48.858;10.128;2023-03-23T13:00:35;13.80;99.90
6377;DHT22;3221;48.858;10.128;2023-03-23T13:03:19;13.80;99.90
6377;DHT22;3221;48.858;10.128;2023-03-23T13:06:11;13.80;99.90
6377;DHT22;3221;48.858;10.128;2023-03-23T13:11:37;13.80;99.90
6377;DHT22;3221;48.858;10.128;2023-03-23T13:14:59;13.70;99.90
6377;DHT22;3221;48.858;10.128;2023-03-23T13:22:55;13.70;99.90
6377;DHT22;3221;48.858;10.128;2023-03-23T13:28:21;13.70;99.90
6377;DHT22;3221;48.858;10.128;2023-03-23T13:30:55;13.60;99.90
6377;DHT22;3221;48.858;10.128;2023-03-23T13:33:21;13.80;99.90
6377;DHT22;3221;48.858;10.128;2023-03-23T13:35:49;13.70;99.90
6377;DHT22;3221;48.858;10.128;2023-03-23T13:38:27;13.80;99.90
6377;DHT22;3221;48.858;10.128;2023-03-23T13:40:56;13.70;99.90
6377;DHT22;3221;48.858;10.128;2023-03-23T13:43:34;13.60;99.90
6377;DHT22;3221;48.858;10.128;2023-03-23T13:56:47;13.80;99.90
6377;DHT22;3221;48.858;10.128;2023-03-23T13:59:15;13.90;99.90
6377;DHT22;3221;48.858;10.128;2023-03-23T14:01:41;13.80;99.90
6377;DHT22;3221;48.858;10.128;2023-03-23T14:04:16;13.80;99.90
6377;DHT22;3221;48.858;10.128;2023-03-23T14:06:44;13.90;99.90
6377;DHT22;3221;48.858;10.128;2023-03-23T14:09:27;13.90;99.90
6377;DHT22;3221;48.858;10.128;2023-03-23T14:12:00;13.90;99.90
6377;DHT22;3221;48.858;10.128;2023-03-23T14:17:41;13.90;99.90
6377;DHT22;3221;48.858;10.128;2023-03-23T14:20:30;13.90;99.90
6377;DHT22;3221;48.858;10.128;2023-03-23T14:22:57;13.70;99.90
6377;DHT22;3221;48.858;10.128;2023-03-23T14:25:27;14.00;99.90
6377;DHT22;3221;48.858;10.128;2023-03-23T14:27:54;14.00;99.90
6377;DHT22;3221;48.858;10.128;2023-03-23T14:30:23;13.90;99.90
6377;DHT22;3221;48.858;10.128;2023-03-23T14:32:51;13.90;99.90
6377;DHT22;3221;48.858;10.128;2023-03-23T14:35:26;13.70;99.90
6377;DHT22;3221;48.858;10.128;2023-03-23T14:37:54;13.80;99.90
6377;DHT22;3221;48.858;10.128;2023-03-23T14:40:21;13.80;99.90
6377;DHT22;3221;48.858;10.128;2023-03-23T14:42:47;13.90;99.90
6377;DHT22;3221;48.858;10.128;2023-03-23T14:45:17;13.80;99.90
6377;DHT22;3221;48.858;10.128;2023-03-23T14:47:50;13.70;99.90
6377;DHT22;3221;48.858;10.128;2023-03-23T14:52:52;13.70;99.90
6377;DHT22;3221;48.858;10.128;2023-03-23T14:55:22;13.70;99.90
6377;DHT22;3221;48.858;10.128;2023-03-23T14:57:49;13.80;99.90
6377;DHT22;3221;48.858;10.128;2023-03-23T15:00:24;13.80;99.90
6377;DHT22;3221;48.858;10.128;2023-03-23T15:02:54;13.70;99.90
6377;DHT22;3221;48.858;10.128;2023-03-23T15:05:30;13.70;99.90
6377;DHT22;3221;48.858;10.128;2023-03-23T15:08:05;13.80;99.90
6377;DHT22;3221;48.858;10.128;2023-03-23T15:10:32;13.70;99.90
6377;DHT22;3221;48.858;10.128;2023-03-23T15:12:58;13.90;99.90
6377;DHT22;3221;48.858;10.128;2023-03-23T15:15:28;13.80;99.90
6377;DHT22;3221;48.858;10.128;2023-03-23T15:17:55;13.80;99.90
6377;DHT22;3221;48.858;10.128;2023-03-23T15:20:25;13.70;99.90
6377;DHT22;3221;48.858;10.128;2023-03-23T15:22:52;13.60;99.90
6377;DHT22;3221;48.858;10.128;2023-03-23T15:25:22;13.60;99.90
6377;DHT22;3221;48.858;10.128;2023-03-23T15:28:06;13.70;99.90
6377;DHT22;3221;48.858;10.128;2023-03-23T15:30:36;13.60;99.90
6377;DHT22;3221;48.858;10.128;2023-03-23T15:33:13;13.70;99.90
6377;DHT22;3221;48.858;10.128;2023-03-23T15:35:45;13.60;99.90
6377;DHT22;3221;48.858;10.128;2023-03-23T15:38:31;13.70;99.90
6377;DHT22;3221;48.858;10.128;2023-03-23T15:41:02;13.70;99.90
6377;DHT22;3221;48.858;10.128;2023-03-23T15:43:32;13.60;99.90
6377;DHT22;3221;48.858;10.128;2023-03-23T15:46:20;13.80;99.90
6377;DHT22;3221;48.858;10.128;2023-03-23T15:48:48;13.50;99.90
6377;DHT22;3221;48.858;10.128;2023-03-23T15:51:16;13.60;99.90
6377;DHT22;3221;48.858;10.128;2023-03-23T15:53:43;13.60;99.90
6377;DHT22;3221;48.858;10.128;2023-03-23T15:56:11;13.80;99.90
6377;DHT22;3221;48.858;10.128;2023-03-23T15:58:37;13.60;99.90
6377;DHT22;3221;48.858;10.128;2023-03-23T16:01:28;13.50;99.90
6377;DHT22;3221;48.858;10.128;2023-03-23T16:04:12;13.50;99.90
6377;DHT22;3221;48.858;10.128;2023-03-23T16:06:41;13.50;99.90
6377;DHT22;3221;48.858;10.128;2023-03-23T16:09:16;13.60;99.90
6377;DHT22;3221;48.858;10.128;2023-03-23T16:11:44;13.60;99.90
6377;DHT22;3221;48.858;10.128;2023-03-23T16:14:11;13.70;99.90
6377;DHT22;3221;48.858;10.128;2023-03-23T16:16:48;13.50;99.90
6377;DHT22;3221;48.858;10.128;2023-03-23T16:19:17;13.70;99.90
6377;DHT22;3221;48.858;10.128;2023-03-23T16:21:45;13.50;99.90
6377;DHT22;3221;48.858;10.128;2023-03-23T16:24:12;13.60;99.90
6377;DHT22;3221;48.858;10.128;2023-03-23T16:26:39;13.50;99.90
6377;DHT22;3221;48.858;10.128;2023-03-23T16:29:14;13.60;99.90
6377;DHT22;3221;48.858;10.128;2023-03-23T16:31:59;13.60;99.90
6377;DHT22;3221;48.858;10.128;2023-03-23T16:34:26;13.60;99.90
6377;DHT22;3221;48.858;10.128;2023-03-23T16:36:55;13.50;99.90
6377;DHT22;3221;48.858;10.128;2023-03-23T16:39:22;13.40;99.90
6377;DHT22;3221;48.858;10.128;2023-03-23T16:41:49;13.60;99.90
6377;DHT22;3221;48.858;10.128;2023-03-23T16:44:16;13.50;99.90
6377;DHT22;3221;48.858;10.128;2023-03-23T16:46:43;13.50;99.90
6377;DHT22;3221;48.858;10.128;2023-03-23T16:49:10;13.50;99.90
6377;DHT22;3221;48.858;10.128;2023-03-23T16:51:37;13.50;99.90
6377;DHT22;3221;48.858;10.128;2023-03-23T16:54:05;13.50;99.90
6377;DHT22;3221;48.858;10.128;2023-03-23T16:56:32;13.40;99.90
6377;DHT22;3221;48.858;10.128;2023-03-23T16:58:59;13.40;99.90
6377;DHT22;3221;48.858;10.128;2023-03-23T17:01:26;13.40;99.90
6377;DHT22;3221;48.858;10.128;2023-03-23T17:03:53;13.60;99.90
6377;DHT22;3221;48.858;10.128;2023-03-23T17:06:21;13.60;99.90
6377;DHT22;3221;48.858;10.128;2023-03-23T17:08:48;13.40;99.90
6377;DHT22;3221;48.858;10.128;2023-03-23T17:11:14;13.40;99.90
6377;DHT22;3221;48.858;10.128;2023-03-23T17:13:41;13.40;99.90
6377;DHT22;3221;48.858;10.128;2023-03-23T17:16:08;13.40;99.90
6377;DHT22;3221;48.858;10.128;2023-03-23T17:18:35;13.30;99.90
6377;DHT22;3221;48.858;10.128;2023-03-23T17:21:02;13.40;99.90
6377;DHT22;3221;48.858;10.128;2023-03-23T17:23:29;13.30;99.90
6377;DHT22;3221;48.858;10.128;2023-03-23T17:25:56;13.40;99.90
6377;DHT22;3221;48.858;10.128;2023-03-23T17:28:23;13.40;99.90
6377;DHT22;3221;48.858;10.128;2023-03-23T17:30:51;13.30;99.90
6377;DHT22;3221;48.858;10.128;2023-03-23T17:33:18;13.30;99.90
6377;DHT22;3221;48.858;10.128;2023-03-23T17:35:46;13.30;99.90
6377;DHT22;3221;48.858;10.128;2023-03-23T17:38:17;13.30;99.90
6377;DHT22;3221;48.858;10.128;2023-03-23T17:40:44;13.10;99.90
6377;DHT22;3221;48.858;10.128;2023-03-23T17:43:11;13.10;99.90
6377;DHT22;3221;48.858;10.128;2023-03-23T17:45:39;13.10;99.90
6377;DHT22;3221;48.858;10.128;2023-03-23T17:48:07;13.10;99.90
6377;DHT22;3221;48.858;10.128;2023-03-23T17:50:34;13.00;99.90
6377;DHT22;3221;48.858;10.128;2023-03-23T17:53:02;13.10;99.90
6377;DHT22;3221;48.858;10.128;2023-03-23T17:55:29;13.10;99.90
6377;DHT22;3221;48.858;10.128;2023-03-23T17:57:56;13.10;99.90
6377;DHT22;3221;48.858;10.128;2023-03-23T18:00:23;13.30;99.90
6377;DHT22;3221;48.858;10.128;2023-03-23T18:02:51;13.10;99.90
6377;DHT22;3221;48.858;10.128;2023-03-23T18:05:18;13.00;99.90
6377;DHT22;3221;48.858;10.128;2023-03-23T18:07:45;12.90;99.90